Latest Weather Observations for Nuriootpa

IDS60901

Issued at 3:31 pm CST Tuesday 28 June 2016 (issued every 10 minutes, with the page automatically refreshed every 10 minutes)

About weather observations | Map of Adelaide area stations | Latest observations for Adelaide area | Other Formats
Station Details ID: 023373 Name: NURIOOTPA PIRSA Lat: -34.48 Lon: 139.01 Height: 275.0 m
Data from the previous 72 hours. | See also: Recent months at Nuriootpa
Date/Time
CST
Temp
°C
App
Temp
°C
Dew
Point
°C
Rel
Hum
%
Delta-T
°C
Wind Press
QNH
hPa
Press
MSL
hPa
Rain since
9am
mm
Dir  Spd
km/h
Gust
km/h
Spd
kts
Gust
kts
28/03:30pm 12.5 8.1 6.5 67 2.9 WNW 19 28 10 15 1026.3 1026.6 0.0
28/03:00pm 12.8 8.2 6.3 64 3.1 WNW 20 28 11 15 1026.4 1026.7 0.0
28/02:30pm 13.1 8.4 6.2 63 3.3 WNW 20 26 11 14 1026.4 1026.7 0.0
28/02:00pm 13.0 8.4 6.3 64 3.2 WNW 20 24 11 13 1026.4 1026.7 0.0
28/01:30pm 12.6 7.5 5.9 63 3.2 WNW 22 30 12 16 1026.5 1026.8 0.0
28/01:00pm 13.3 7.9 6.5 63 3.3 WNW 24 32 13 17 1026.7 1027.0 0.0
28/12:30pm 12.6 7.5 5.8 63 3.2 WNW 22 32 12 17 1027.0 1027.3 0.0
28/12:00pm 12.8 7.4 6.3 64 3.1 W 24 35 13 19 1027.2 1027.5 0.0
28/11:30am 12.6 8.7 7.3 70 2.6 WNW 17 26 9 14 1027.4 1027.8 0.0
28/11:00am 12.2 7.6 6.6 68 2.7 WNW 20 28 11 15 1027.7 1028.1 0.0
28/10:30am 12.0 8.2 5.9 66 2.9 WNW 15 24 8 13 1027.7 1028.1 0.0
28/10:00am 11.3 7.9 5.7 68 2.6 NW 13 20 7 11 1027.6 1028.0 0.0
28/09:30am 10.4 6.8 5.2 70 2.4 NW 13 19 7 10 1027.2 1027.5 0.0
28/09:00am 9.3 6.3 4.1 70 2.3 WNW 9 19 5 10 1027.0 1027.3 0.0
28/08:30am 7.5 5.2 5.0 84 1.1 ENE 6 9 3 5 1026.8 1027.1 0.0
28/08:00am 5.2 2.7 4.0 92 0.5 ESE 6 7 3 4 1026.6 1026.9 0.0
28/07:30am 5.0 3.6 3.8 92 0.5 CALM 0 6 0 3 1026.3 1026.6 0.0
28/07:00am 5.6 2.9 3.7 87 0.8 WNW 7 11 4 6 1025.9 1026.2 0.0
28/06:30am 7.0 4.1 4.7 85 1.0 NW 9 13 5 7 1025.3 1025.7 0.0
28/06:00am 7.4 4.2 5.2 86 1.0 NW 11 17 6 9 1025.0 1025.4 0.0
28/05:30am 7.5 4.4 5.5 87 0.9 NW 11 17 6 9 1024.9 1025.3 0.0
28/05:00am 7.6 4.5 5.6 87 0.9 NW 11 17 6 9 1024.7 1025.1 0.0
28/04:30am 7.6 4.2 5.8 88 0.8 WNW 13 17 7 9 1024.4 1024.8 0.0
28/04:00am 8.2 4.4 6.0 86 1.0 WNW 15 22 8 12 1024.4 1024.8 0.0
28/03:30am 8.0 3.4 5.8 86 1.0 WNW 19 24 10 13 1024.3 1024.7 0.0
28/03:00am 8.1 2.6 5.9 86 1.0 WNW 24 30 13 16 1024.3 1024.7 0.0
28/02:30am 8.0 3.0 6.3 89 0.8 WNW 22 30 12 16 1024.5 1024.9 0.0
28/02:00am 6.6 2.9 6.2 97 0.2 W 15 26 8 14 1024.5 1024.9 0.0
28/01:30am 2.8 0.1 2.8 100 0.0 ENE 6 7 3 4 1024.5 1024.9 0.0
28/01:00am 3.0 1.1 2.8 99 0.1 E 2 6 1 3 1024.6 1025.0 0.0
28/12:30am 3.2 1.4 3.2 100 0.0 NE 2 7 1 4 1024.5 1024.9 0.0
28/12:00am 2.7 0.0 2.4 98 0.1 E 6 9 3 5 1024.5 1024.9 0.0
 
Date/Time
CST
Temp
°C
App
Temp
°C
Dew
Point
°C
Rel
Hum
%
Delta-T
°C
Wind Press
QNH
hPa
Press
MSL
hPa
Rain since
9am
mm
Dir  Spd
km/h
Gust
km/h
Spd
kts
Gust
kts
27/11:30pm 2.8 1.2 2.6 99 0.1 CALM 0 0 0 0 1024.7 1025.1 0.0
27/11:00pm 3.2 0.6 3.2 100 0.0 E 6 7 3 4 1024.6 1025.0 0.0
27/10:30pm 3.6 0.9 2.9 95 0.3 ENE 6 7 3 4 1024.5 1024.9 0.0
27/10:00pm 3.8 1.2 3.3 97 0.2 E 6 7 3 4 1024.4 1024.8 0.0
27/09:30pm 4.3 1.8 3.8 97 0.2 E 6 7 3 4 1024.4 1024.8 0.0
27/09:00pm 4.6 2.9 4.1 97 0.2 ENE 2 7 1 4 1024.1 1024.4 0.0
27/08:30pm 4.9 2.5 4.4 97 0.2 NE 6 7 3 4 1024.0 1024.3 0.0
27/08:00pm 5.1 2.5 4.4 95 0.3 ENE 7 7 4 4 1023.7 1024.0 0.0
27/07:30pm 5.1 3.8 4.2 94 0.4 CALM 0 0 0 0 1023.5 1023.8 0.0
27/07:00pm 5.9 4.8 5.0 94 0.4 CALM 0 0 0 0 1023.3 1023.6 0.0
27/06:30pm 6.8 5.7 5.2 89 0.7 CALM 0 4 0 2 1023.0 1023.3 0.0
27/06:00pm 7.9 5.8 5.7 86 1.0 WNW 6 7 3 4 1022.6 1022.9 0.0
27/05:30pm 9.5 7.2 5.6 76 1.8 W 7 9 4 5 1022.4 1022.7 0.0
27/05:00pm 10.5 7.3 5.3 70 2.4 W 11 17 6 9 1022.1 1022.4 0.0
27/04:30pm 11.6 7.1 4.1 60 3.4 WSW 17 24 9 13 1021.9 1022.2 0.0
27/04:00pm 12.0 6.8 3.3 55 3.9 WSW 20 26 11 14 1021.5 1021.9 0.0
27/03:30pm 12.7 7.7 4.7 58 3.7 WSW 20 32 11 17 1021.2 1021.6 0.0
27/03:00pm 12.9 7.9 3.7 53 4.2 WSW 19 28 10 15 1020.9 1021.2 0.0
27/02:30pm 12.1 6.5 3.7 56 3.8 WSW 22 37 12 20 1020.8 1021.1 0.0
27/02:00pm 12.4 7.4 3.5 54 4.0 WSW 19 28 10 15 1020.8 1021.1 0.0
27/01:30pm 12.8 7.7 4.3 56 3.9 WSW 20 32 11 17 1020.8 1021.1 0.0
27/01:00pm 11.9 7.5 4.8 62 3.3 WSW 17 28 9 15 1021.0 1021.3 0.0
27/12:30pm 12.4 7.9 5.9 64 3.1 WSW 19 30 10 16 1021.1 1021.4 0.0
27/12:00pm 11.7 7.2 6.2 69 2.6 WSW 19 28 10 15 1021.4 1021.8 0.0
27/11:30am 11.0 7.1 7.3 78 1.8 SW 17 24 9 13 1021.5 1021.9 0.0
27/11:00am 10.4 7.1 7.9 84 1.2 SW 15 22 8 12 1021.5 1021.9 0.0
27/10:30am 9.7 7.7 8.7 93 0.5 SW 9 15 5 8 1021.6 1022.0 0.0
27/10:00am 9.0 6.5 8.4 96 0.3 SW 11 15 6 8 1021.2 1021.6 0.0
27/09:30am 8.7 5.8 8.3 97 0.2 SW 13 17 7 9 1020.8 1021.1 0.0
27/09:00am 8.8 5.9 8.2 96 0.3 WSW 13 19 7 10 1020.6 1020.9 1.8
27/08:30am 8.4 5.9 8.0 97 0.2 WSW 11 15 6 8 1020.2 1020.5 1.8
27/08:00am 8.4 5.5 8.0 97 0.2 WNW 13 20 7 11 1019.8 1020.1 1.6
27/07:30am 8.2 5.3 8.0 99 0.1 WNW 13 20 7 11 1019.5 1019.8 1.2
27/07:00am 8.4 5.5 8.0 97 0.2 WNW 13 19 7 10 1019.0 1019.3 1.2
27/06:30am 8.4 5.1 8.0 97 0.2 WNW 15 20 8 11 1018.6 1018.9 1.2
27/06:00am 8.2 4.5 7.8 97 0.2 WNW 17 24 9 13 1018.3 1018.6 1.2
27/05:30am 8.1 5.1 7.7 97 0.2 WNW 13 19 7 10 1017.8 1018.1 1.0
27/05:00am 8.3 4.9 7.7 96 0.3 WNW 15 20 8 11 1017.5 1017.8 0.8
27/04:30am 8.5 5.0 7.2 91 0.6 WNW 15 22 8 12 1017.3 1017.6 0.4
27/04:00am 8.3 5.1 6.8 90 0.7 NW 13 19 7 10 1017.2 1017.5 0.4
27/03:30am 8.2 5.0 6.7 90 0.7 NW 13 20 7 11 1017.1 1017.4 0.4
27/03:00am 7.9 4.6 6.6 91 0.6 WNW 13 19 7 10 1017.1 1017.4 0.4
27/02:30am 7.9 4.6 6.4 90 0.7 WNW 13 17 7 9 1017.2 1017.5 0.4
27/02:00am 7.7 5.7 6.4 91 0.6 WSW 6 9 3 5 1017.2 1017.5 0.4
27/01:30am 7.8 5.6 6.3 90 0.7 W 7 11 4 6 1017.2 1017.5 0.4
27/01:00am 7.9 4.9 5.9 87 0.9 NW 11 15 6 8 1017.2 1017.5 0.0
27/12:30am 7.9 4.1 5.7 86 1.0 NW 15 24 8 13 1017.3 1017.6 0.0
27/12:00am 5.9 4.9 5.5 97 0.2 CALM 0 0 0 0 1017.3 1017.6 0.0
 
Date/Time
CST
Temp
°C
App
Temp
°C
Dew
Point
°C
Rel
Hum
%
Delta-T
°C
Wind Press
QNH
hPa
Press
MSL
hPa
Rain since
9am
mm
Dir  Spd
km/h
Gust
km/h
Spd
kts
Gust
kts
26/11:30pm 5.6 3.4 5.1 97 0.2 ENE 6 7 3 4 1017.1 1017.4 0.0
26/11:00pm 5.2 3.3 4.7 97 0.2 ENE 4 7 2 4 1017.1 1017.4 0.0
26/10:30pm 4.7 2.2 4.5 99 0.1 E 7 9 4 5 1017.1 1017.4 0.0
26/10:00pm 3.7 1.0 3.5 99 0.1 E 7 7 4 4 1017.0 1017.3 0.0
26/09:30pm 4.1 2.3 3.6 97 0.2 ENE 2 7 1 4 1017.0 1017.3 0.0
26/09:00pm 4.5 3.1 3.8 95 0.3 CALM 0 0 0 0 1017.0 1017.3 0.0
26/08:30pm 4.8 3.5 4.3 97 0.2 CALM 0 6 0 3 1017.1 1017.4 0.0
26/08:00pm 5.9 3.6 4.8 93 0.5 NE 6 7 3 4 1017.1 1017.4 0.0
26/07:30pm 6.3 5.3 5.4 94 0.4 CALM 0 0 0 0 1017.0 1017.3 0.0
26/07:00pm 6.5 5.4 4.9 89 0.7 CALM 0 0 0 0 1016.9 1017.2 0.0
26/06:30pm 7.1 6.0 5.3 88 0.8 CALM 0 0 0 0 1016.6 1016.9 0.0
26/06:00pm 7.9 6.9 5.7 86 1.0 CALM 0 0 0 0 1016.3 1016.6 0.0
26/05:30pm 8.7 7.6 5.2 79 1.6 CALM 0 0 0 0 1015.9 1016.2 0.0
26/05:00pm 9.2 6.7 4.8 74 2.0 W 7 11 4 6 1015.9 1016.2 0.0
26/04:30pm 9.4 6.3 3.8 68 2.5 WNW 9 13 5 7 1015.9 1016.2 0.0
26/04:00pm 9.6 6.1 3.7 66 2.6 W 11 15 6 8 1015.7 1016.0 0.0
26/03:30pm 9.5 5.5 4.9 73 2.1 WNW 15 19 8 10 1015.6 1015.9 0.0
26/03:00pm 9.4 5.0 5.0 74 2.0 NW 17 24 9 13 1015.8 1016.1 0.0
26/02:30pm 10.1 5.0 4.3 67 2.6 WNW 20 28 11 15 1015.8 1016.1 0.0
26/02:00pm 10.8 6.0 4.7 66 2.8 WNW 19 28 10 15 1015.8 1016.1 0.0
26/01:30pm 10.5 5.8 3.3 61 3.2 WNW 17 24 9 13 1016.0 1016.3 0.0
26/01:00pm 10.6 6.1 4.2 64 2.9 WNW 17 24 9 13 1016.3 1016.6 0.0
26/12:30pm 11.0 6.4 3.6 60 3.3 NW 17 24 9 13 1016.6 1016.9 0.0
26/12:00pm 10.9 6.4 4.3 64 3.0 NW 17 26 9 14 1017.0 1017.3 0.0
26/11:30am 10.8 7.0 3.9 62 3.1 NW 13 20 7 11 1017.7 1018.0 0.0
26/11:00am 10.4 6.7 4.2 65 2.8 NNW 13 19 7 10 1018.2 1018.5 0.0
26/10:30am 9.5 5.8 4.4 70 2.3 N 13 17 7 9 1018.5 1018.8 0.0
26/10:00am 8.9 5.5 4.2 72 2.1 N 11 15 6 8 1018.6 1018.9 0.0
26/09:30am 8.6 5.6 4.1 73 2.0 N 9 17 5 9 1018.8 1019.1 0.0
26/09:00am 8.4 5.0 3.8 73 2.0 N 11 15 6 8 1018.6 1018.9 0.0
26/08:30am 8.1 5.4 3.8 74 1.9 WNW 7 9 4 5 1018.7 1019.0 0.0
26/08:00am 7.8 4.7 3.4 74 1.9 NNE 9 11 5 6 1018.7 1019.0 0.0
26/07:30am 7.7 5.0 3.5 75 1.8 NNE 7 9 4 5 1018.6 1018.9 0.0
26/07:00am 7.6 4.5 3.7 76 1.7 NE 9 13 5 7 1018.3 1018.6 0.0
26/06:30am 7.3 5.2 4.1 80 1.4 ENE 4 7 2 4 1017.8 1018.1 0.0
26/06:00am 7.2 5.6 4.5 83 1.2 NE 2 6 1 3 1018.1 1018.3 0.0
26/05:30am 7.5 4.9 4.3 80 1.4 NNE 7 9 4 5 1018.3 1018.6 0.0
26/05:00am 7.4 4.9 4.5 82 1.3 NNE 7 9 4 5 1018.5 1018.8 0.0
26/04:30am 7.6 5.0 4.4 80 1.4 N 7 11 4 6 1018.7 1019.0 0.0
26/04:00am 7.6 5.2 4.4 80 1.4 N 6 9 3 5 1019.3 1019.6 0.0
26/03:30am 7.5 5.2 4.8 83 1.2 NNE 6 7 3 4 1019.2 1019.5 0.0
26/03:00am 7.6 4.7 4.4 80 1.4 NE 9 9 5 5 1019.3 1019.6 0.0
26/02:30am 7.7 5.1 4.3 79 1.5 NE 7 9 4 5 1019.6 1019.9 0.0
26/02:00am 7.8 5.4 4.2 78 1.6 NNE 6 9 3 5 1019.8 1020.1 0.0
26/01:30am 8.0 5.3 3.9 75 1.8 N 7 13 4 7 1020.0 1020.3 0.0
26/01:00am 8.1 4.6 3.5 73 2.0 N 11 15 6 8 1020.2 1020.5 0.0
26/12:30am 8.0 4.9 3.6 74 1.9 N 9 13 5 7 1019.7 1020.0 0.0
26/12:00am 8.1 5.0 3.8 74 1.9 NNE 9 13 5 7 1020.1 1020.4 0.0
 
Date/Time
CST
Temp
°C
App
Temp
°C
Dew
Point
°C
Rel
Hum
%
Delta-T
°C
Wind Press
QNH
hPa
Press
MSL
hPa
Rain since
9am
mm
Dir  Spd
km/h
Gust
km/h
Spd
kts
Gust
kts
25/11:30pm 8.1 5.5 4.0 75 1.8 N 7 9 4 5 1020.5 1020.8 0.0
25/11:00pm 8.0 5.4 4.4 78 1.6 NE 7 11 4 6 1020.6 1020.9 0.0
25/10:30pm 8.0 5.7 4.9 81 1.4 NE 6 7 3 4 1021.0 1021.3 0.0
25/10:00pm 8.2 5.7 4.6 78 1.6 NE 7 9 4 5 1021.1 1021.4 0.0
25/09:30pm 8.4 6.0 4.3 75 1.8 NE 6 9 3 5 1021.3 1021.7 0.0
25/09:00pm 8.4 6.9 4.8 78 1.6 NNE 2 6 1 3 1021.1 1021.4 0.0
25/08:30pm 8.6 6.2 4.1 73 2.0 NNW 6 7 3 4 1021.5 1021.9 0.0
25/08:00pm 8.6 7.0 4.6 76 1.8 NNE 2 6 1 3 1021.5 1021.9 0.0
25/07:30pm 8.8 6.2 4.3 73 2.0 NNE 7 11 4 6 1022.0 1022.3 0.0
25/07:00pm 8.7 6.5 5.2 79 1.6 NE 6 7 3 4 1022.2 1022.5 0.0
25/06:30pm 8.9 6.0 4.7 75 1.9 NE 9 13 5 7 1022.0 1022.3 0.0
25/06:00pm 9.1 6.6 4.7 74 2.0 NE 7 13 4 7 1021.5 1021.9 0.0
25/05:30pm 9.3 6.4 4.6 72 2.1 NNE 9 13 5 7 1021.5 1021.9 0.0
25/05:00pm 9.7 6.8 4.4 69 2.4 NE 9 13 5 7 1021.6 1022.0 0.0
25/04:30pm 10.0 6.7 4.7 69 2.4 NE 11 17 6 9 1021.6 1022.0 0.0
25/04:00pm 10.3 6.5 4.1 65 2.8 NNE 13 17 7 9 1021.9 1022.2 0.0

Latest Capital City Observations: Canberra | Sydney | Melbourne | Brisbane | Adelaide | Perth | Hobart | Darwin

Other Formats:

Comma delimited format used in spreadsheet applications
http://www.bom.gov.au/fwo/IDS60901/IDS60901.94681.axf

JavaScript Object Notation format (JSON) in row-major order
http://www.bom.gov.au/fwo/IDS60901/IDS60901.94681.json